sensor_id;sensor_type;location;lat;lon;timestamp;pressure;altitude;pressure_sealevel;temperature;humidity
9774;BME280;4926;42.670;23.316;2023-04-28T00:00:51;94702.03;;;7.79;54.26
9774;BME280;4926;42.670;23.316;2023-04-28T00:03:18;94702.03;;;7.79;54.52
9774;BME280;4926;42.670;23.316;2023-04-28T00:05:45;94710.00;;;7.79;54.46
9774;BME280;4926;42.670;23.316;2023-04-28T00:08:13;94703.88;;;7.79;54.40
9774;BME280;4926;42.670;23.316;2023-04-28T00:10:45;94700.16;;;7.75;54.73
9774;BME280;4926;42.670;23.316;2023-04-28T00:13:13;94705.47;;;7.75;54.66
9774;BME280;4926;42.670;23.316;2023-04-28T00:15:42;94708.38;;;7.73;55.04
9774;BME280;4926;42.670;23.316;2023-04-28T00:18:09;94710.25;;;7.68;55.12
9774;BME280;4926;42.670;23.316;2023-04-28T00:20:36;94712.66;;;7.69;54.92
9774;BME280;4926;42.670;23.316;2023-04-28T00:23:06;94718.19;;;7.63;55.08
9774;BME280;4926;42.670;23.316;2023-04-28T00:25:32;94716.59;;;7.62;55.44
9774;BME280;4926;42.670;23.316;2023-04-28T00:27:59;94717.69;;;7.61;55.27
9774;BME280;4926;42.670;23.316;2023-04-28T00:30:28;94711.31;;;7.67;55.10
9774;BME280;4926;42.670;23.316;2023-04-28T00:32:55;94718.72;;;7.70;55.32
9774;BME280;4926;42.670;23.316;2023-04-28T00:35:22;94721.91;;;7.57;55.49
9774;BME280;4926;42.670;23.316;2023-04-28T00:37:48;94721.91;;;7.57;55.57
9774;BME280;4926;42.670;23.316;2023-04-28T00:40:15;94724.28;;;7.53;55.45
9774;BME280;4926;42.670;23.316;2023-04-28T00:42:42;94727.97;;;7.52;55.49
9774;BME280;4926;42.670;23.316;2023-04-28T00:45:09;94732.22;;;7.58;55.33
9774;BME280;4926;42.670;23.316;2023-04-28T00:47:38;94725.31;;;7.52;55.34
9774;BME280;4926;42.670;23.316;2023-04-28T00:50:06;94733.56;;;7.61;55.59
9774;BME280;4926;42.670;23.316;2023-04-28T00:52:35;94726.94;;;7.53;55.83
9774;BME280;4926;42.670;23.316;2023-04-28T00:55:04;94735.41;;;7.55;55.76
9774;BME280;4926;42.670;23.316;2023-04-28T00:57:31;94739.63;;;7.46;55.72
9774;BME280;4926;42.670;23.316;2023-04-28T00:59:58;94733.81;;;7.44;55.99
9774;BME280;4926;42.670;23.316;2023-04-28T01:02:25;94749.69;;;7.39;56.14
9774;BME280;4926;42.670;23.316;2023-04-28T01:04:55;94740.94;;;7.39;56.47
9774;BME280;4926;42.670;23.316;2023-04-28T01:07:22;94737.47;;;7.38;56.21
9774;BME280;4926;42.670;23.316;2023-04-28T01:09:48;94736.94;;;7.31;56.23
9774;BME280;4926;42.670;23.316;2023-04-28T01:12:15;94748.06;;;7.23;56.67
9774;BME280;4926;42.670;23.316;2023-04-28T01:14:42;94744.88;;;7.26;56.67
9774;BME280;4926;42.670;23.316;2023-04-28T01:17:09;94748.56;;;7.15;56.54
9774;BME280;4926;42.670;23.316;2023-04-28T01:19:36;94743.28;;;7.15;56.78
9774;BME280;4926;42.670;23.316;2023-04-28T01:22:04;94727.31;;;6.95;56.85
9774;BME280;4926;42.670;23.316;2023-04-28T01:24:33;94753.03;;;7.10;57.05
9774;BME280;4926;42.670;23.316;2023-04-28T01:27:00;94751.69;;;7.07;57.14
9774;BME280;4926;42.670;23.316;2023-04-28T01:29:27;94744.56;;;7.03;57.00
9774;BME280;4926;42.670;23.316;2023-04-28T01:31:54;94754.31;;;6.92;56.64
9774;BME280;4926;42.670;23.316;2023-04-28T01:34:22;94754.59;;;6.96;56.99
9774;BME280;4926;42.670;23.316;2023-04-28T01:36:51;94751.69;;;7.02;56.62
9774;BME280;4926;42.670;23.316;2023-04-28T01:39:49;94742.16;;;6.96;56.82
9774;BME280;4926;42.670;23.316;2023-04-28T01:42:18;94741.63;;;6.94;56.67
9774;BME280;4926;42.670;23.316;2023-04-28T01:44:44;94750.59;;;6.98;56.59
9774;BME280;4926;42.670;23.316;2023-04-28T01:47:11;94750.88;;;6.97;56.06
9774;BME280;4926;42.670;23.316;2023-04-28T01:49:38;94744.75;;;6.91;56.37
9774;BME280;4926;42.670;23.316;2023-04-28T01:52:04;94749.53;;;6.89;56.38
9774;BME280;4926;42.670;23.316;2023-04-28T01:54:34;94747.66;;;6.85;56.59
9774;BME280;4926;42.670;23.316;2023-04-28T01:57:04;94743.97;;;6.86;56.34
9774;BME280;4926;42.670;23.316;2023-04-28T01:59:31;94750.28;;;6.85;56.34
9774;BME280;4926;42.670;23.316;2023-04-28T02:01:57;94750.56;;;6.83;56.37
9774;BME280;4926;42.670;23.316;2023-04-28T02:04:24;94737.84;;;6.75;56.34
9774;BME280;4926;42.670;23.316;2023-04-28T02:06:51;94751.06;;;6.75;56.53
9774;BME280;4926;42.670;23.316;2023-04-28T02:09:17;94750.00;;;6.76;56.62
9774;BME280;4926;42.670;23.316;2023-04-28T02:11:44;94756.28;;;6.65;57.01
9774;BME280;4926;42.670;23.316;2023-04-28T02:14:12;94762.09;;;6.62;57.66
9774;BME280;4926;42.670;23.316;2023-04-28T02:16:40;94766.34;;;6.63;57.55
9774;BME280;4926;42.670;23.316;2023-04-28T02:19:10;94769.00;;;6.63;57.30
9774;BME280;4926;42.670;23.316;2023-04-28T02:21:40;94761.59;;;6.70;57.23
9774;BME280;4926;42.670;23.316;2023-04-28T02:24:09;94764.25;;;6.70;57.35
9774;BME280;4926;42.670;23.316;2023-04-28T02:26:38;94771.72;;;6.78;57.30
9774;BME280;4926;42.670;23.316;2023-04-28T02:29:05;94766.41;;;6.78;57.11
9774;BME280;4926;42.670;23.316;2023-04-28T02:31:33;94761.09;;;6.73;57.19
9774;BME280;4926;42.670;23.316;2023-04-28T02:34:00;94768.50;;;6.71;57.06
9774;BME280;4926;42.670;23.316;2023-04-28T02:36:28;94771.69;;;6.73;57.33
9774;BME280;4926;42.670;23.316;2023-04-28T02:39:00;94771.94;;;6.71;57.42
9774;BME280;4926;42.670;23.316;2023-04-28T02:41:26;94770.59;;;6.69;57.68
9774;BME280;4926;42.670;23.316;2023-04-28T02:43:57;94777.47;;;6.70;57.38
9774;BME280;4926;42.670;23.316;2023-04-28T02:46:27;94778.00;;;6.67;57.51
9774;BME280;4926;42.670;23.316;2023-04-28T02:48:56;94776.97;;;6.73;57.63
9774;BME280;4926;42.670;23.316;2023-04-28T02:51:26;94777.53;;;6.80;57.64
9774;BME280;4926;42.670;23.316;2023-04-28T02:53:52;94782.28;;;6.78;57.44
9774;BME280;4926;42.670;23.316;2023-04-28T02:56:19;94779.91;;;6.76;57.72
9774;BME280;4926;42.670;23.316;2023-04-28T02:58:46;94784.41;;;6.81;57.24
9774;BME280;4926;42.670;23.316;2023-04-28T03:01:13;94790.78;;;6.80;56.90
9774;BME280;4926;42.670;23.316;2023-04-28T03:03:49;94797.06;;;6.69;57.38
9774;BME280;4926;42.670;23.316;2023-04-28T03:06:20;94793.59;;;6.68;57.77
9774;BME280;4926;42.670;23.316;2023-04-28T03:08:52;94797.34;;;6.72;57.58
9774;BME280;4926;42.670;23.316;2023-04-28T03:11:18;94795.69;;;6.61;57.47
9774;BME280;4926;42.670;23.316;2023-04-28T03:13:45;94795.44;;;6.63;57.76
9774;BME280;4926;42.670;23.316;2023-04-28T03:16:15;94790.66;;;6.65;57.54
9774;BME280;4926;42.670;23.316;2023-04-28T03:18:44;94790.66;;;6.65;56.83
9774;BME280;4926;42.670;23.316;2023-04-28T03:21:11;94790.09;;;6.58;56.75
9774;BME280;4926;42.670;23.316;2023-04-28T03:23:42;94797.25;;;6.57;57.25
9774;BME280;4926;42.670;23.316;2023-04-28T03:26:11;94798.81;;;6.53;57.30
9774;BME280;4926;42.670;23.316;2023-04-28T03:28:38;94814.16;;;6.56;57.14
9774;BME280;4926;42.670;23.316;2023-04-28T03:31:07;94813.38;;;6.56;57.18
9774;BME280;4926;42.670;23.316;2023-04-28T03:33:34;94813.88;;;6.53;57.16
9774;BME280;4926;42.670;23.316;2023-04-28T03:36:01;94825.53;;;6.57;57.26
9774;BME280;4926;42.670;23.316;2023-04-28T03:38:27;94824.28;;;6.64;56.89
9774;BME280;4926;42.670;23.316;2023-04-28T03:40:55;94832.97;;;6.60;56.98
9774;BME280;4926;42.670;23.316;2023-04-28T03:43:22;94833.75;;;6.55;56.72
9774;BME280;4926;42.670;23.316;2023-04-28T03:45:54;94837.69;;;6.58;56.94
9774;BME280;4926;42.670;23.316;2023-04-28T03:48:21;94838.78;;;6.62;56.67
9774;BME280;4926;42.670;23.316;2023-04-28T03:50:47;94832.19;;;6.59;56.60
9774;BME280;4926;42.670;23.316;2023-04-28T03:53:14;94842.97;;;6.53;56.26
9774;BME280;4926;42.670;23.316;2023-04-28T03:55:41;94846.69;;;6.57;56.74
9774;BME280;4926;42.670;23.316;2023-04-28T03:58:11;94846.69;;;6.57;56.62
9774;BME280;4926;42.670;23.316;2023-04-28T04:00:38;94849.34;;;6.57;56.44
9774;BME280;4926;42.670;23.316;2023-04-28T04:03:04;94857.34;;;6.67;56.32
9774;BME280;4926;42.670;23.316;2023-04-28T04:05:31;94854.16;;;6.65;56.25
9774;BME280;4926;42.670;23.316;2023-04-28T04:08:00;94871.13;;;6.69;55.84
9774;BME280;4926;42.670;23.316;2023-04-28T04:10:27;94852.34;;;6.70;56.09
9774;BME280;4926;42.670;23.316;2023-04-28T04:12:55;94839.88;;;6.61;55.94
9774;BME280;4926;42.670;23.316;2023-04-28T04:15:23;94862.91;;;6.70;55.97
9774;BME280;4926;42.670;23.316;2023-04-28T04:17:50;94871.69;;;6.76;55.74
9774;BME280;4926;42.670;23.316;2023-04-28T04:20:16;94866.91;;;6.73;55.37
9774;BME280;4926;42.670;23.316;2023-04-28T04:22:48;94866.69;;;6.79;56.13
9774;BME280;4926;42.670;23.316;2023-04-28T04:25:15;94877.56;;;6.83;55.57
9774;BME280;4926;42.670;23.316;2023-04-28T04:27:42;94877.28;;;6.85;55.47
9774;BME280;4926;42.670;23.316;2023-04-28T04:30:09;94873.94;;;6.94;55.40
9774;BME280;4926;42.670;23.316;2023-04-28T04:32:37;94874.94;;;6.88;55.12
9774;BME280;4926;42.670;23.316;2023-04-28T04:35:07;94872.53;;;6.82;55.15
9774;BME280;4926;42.670;23.316;2023-04-28T04:37:37;94881.84;;;6.89;55.30
9774;BME280;4926;42.670;23.316;2023-04-28T04:40:05;94873.41;;;6.97;54.82
9774;BME280;4926;42.670;23.316;2023-04-28T04:42:32;94889.81;;;6.94;54.70
9774;BME280;4926;42.670;23.316;2023-04-28T04:44:59;94878.41;;;6.94;54.74
9774;BME280;4926;42.670;23.316;2023-04-28T04:47:27;94879.00;;;7.06;54.64
9774;BME280;4926;42.670;23.316;2023-04-28T04:49:55;94880.34;;;7.03;54.23
9774;BME280;4926;42.670;23.316;2023-04-28T04:52:22;94886.13;;;7.00;54.67
9774;BME280;4926;42.670;23.316;2023-04-28T04:54:49;94900.41;;;6.94;54.77
9774;BME280;4926;42.670;23.316;2023-04-28T04:57:16;94887.72;;;7.01;54.84
9774;BME280;4926;42.670;23.316;2023-04-28T04:59:42;94909.78;;;7.17;55.12
9774;BME280;4926;42.670;23.316;2023-04-28T05:02:10;94892.66;;;7.29;54.71
9774;BME280;4926;42.670;23.316;2023-04-28T05:04:42;94897.41;;;7.32;54.44
9774;BME280;4926;42.670;23.316;2023-04-28T05:07:10;94904.28;;;7.28;53.98
9774;BME280;4926;42.670;23.316;2023-04-28T05:09:37;94900.03;;;7.27;54.65
9774;BME280;4926;42.670;23.316;2023-04-28T05:12:04;94913.59;;;7.41;54.22
9774;BME280;4926;42.670;23.316;2023-04-28T05:14:31;94898.28;;;7.53;54.08
9774;BME280;4926;42.670;23.316;2023-04-28T05:17:00;94908.16;;;7.62;53.64
9774;BME280;4926;42.670;23.316;2023-04-28T05:19:27;94903.16;;;7.76;53.42
9774;BME280;4926;42.670;23.316;2023-04-28T05:21:59;94901.31;;;7.81;53.30
9774;BME280;4926;42.670;23.316;2023-04-28T05:24:27;94901.06;;;7.93;53.29
9774;BME280;4926;42.670;23.316;2023-04-28T05:26:57;94909.28;;;7.91;53.49
9774;BME280;4926;42.670;23.316;2023-04-28T05:29:24;94908.81;;;8.10;52.98
9774;BME280;4926;42.670;23.316;2023-04-28T05:31:51;94898.75;;;8.12;53.32
9774;BME280;4926;42.670;23.316;2023-04-28T05:34:17;94907.47;;;8.02;53.43
9774;BME280;4926;42.670;23.316;2023-04-28T05:36:44;94905.91;;;8.11;53.34
9774;BME280;4926;42.670;23.316;2023-04-28T05:39:11;94896.63;;;8.19;53.40
9774;BME280;4926;42.670;23.316;2023-04-28T05:41:39;94890.78;;;8.17;53.60
9774;BME280;4926;42.670;23.316;2023-04-28T05:44:07;94891.84;;;8.16;53.45
9774;BME280;4926;42.670;23.316;2023-04-28T05:46:33;94895.03;;;8.18;53.37
9774;BME280;4926;42.670;23.316;2023-04-28T05:49:01;94902.75;;;8.24;53.53
9774;BME280;4926;42.670;23.316;2023-04-28T05:51:28;94896.69;;;8.34;53.38
9774;BME280;4926;42.670;23.316;2023-04-28T05:53:57;94897.22;;;8.46;52.96
9774;BME280;4926;42.670;23.316;2023-04-28T05:56:24;94898.81;;;8.57;52.46
9774;BME280;4926;42.670;23.316;2023-04-28T05:58:52;94896.16;;;8.62;52.80
9774;BME280;4926;42.670;23.316;2023-04-28T06:01:19;94903.06;;;8.73;52.04
9774;BME280;4926;42.670;23.316;2023-04-28T06:03:48;94895.34;;;8.71;51.17
9774;BME280;4926;42.670;23.316;2023-04-28T06:06:15;94894.56;;;8.71;50.97
9774;BME280;4926;42.670;23.316;2023-04-28T06:08:42;94888.19;;;8.67;51.19
9774;BME280;4926;42.670;23.316;2023-04-28T06:11:09;94898.53;;;8.63;50.93
9774;BME280;4926;42.670;23.316;2023-04-28T06:13:36;94891.13;;;8.65;50.91
9774;BME280;4926;42.670;23.316;2023-04-28T06:16:04;94893.22;;;8.68;50.22
9774;BME280;4926;42.670;23.316;2023-04-28T06:18:31;94884.47;;;8.78;50.93
9774;BME280;4926;42.670;23.316;2023-04-28T06:20:58;94896.16;;;8.92;51.09
9774;BME280;4926;42.670;23.316;2023-04-28T06:23:25;94887.13;;;8.73;50.46
9774;BME280;4926;42.670;23.316;2023-04-28T06:25:52;94892.41;;;8.68;50.99
9774;BME280;4926;42.670;23.316;2023-04-28T06:28:18;94895.63;;;8.85;50.46
9774;BME280;4926;42.670;23.316;2023-04-28T06:30:45;94887.09;;;8.93;50.31
9774;BME280;4926;42.670;23.316;2023-04-28T06:33:13;94896.38;;;9.00;50.08
9774;BME280;4926;42.670;23.316;2023-04-28T06:35:40;94896.06;;;9.22;50.31
9774;BME280;4926;42.670;23.316;2023-04-28T06:38:07;94888.91;;;9.18;49.90
9774;BME280;4926;42.670;23.316;2023-04-28T06:40:36;94890.75;;;9.22;49.34
9774;BME280;4926;42.670;23.316;2023-04-28T06:43:04;94872.19;;;9.12;49.00
9774;BME280;4926;42.670;23.316;2023-04-28T06:45:31;94874.00;;;9.32;49.46
9774;BME280;4926;42.670;23.316;2023-04-28T06:47:57;94878.72;;;9.55;48.71
9774;BME280;4926;42.670;23.316;2023-04-28T06:50:27;94873.84;;;9.72;48.20
9774;BME280;4926;42.670;23.316;2023-04-28T06:52:54;94871.34;;;9.90;48.20
9774;BME280;4926;42.670;23.316;2023-04-28T06:55:21;94880.03;;;10.06;47.54
9774;BME280;4926;42.670;23.316;2023-04-28T06:57:48;94867.25;;;10.08;47.53
9774;BME280;4926;42.670;23.316;2023-04-28T07:00:15;94862.66;;;10.29;46.29
9774;BME280;4926;42.670;23.316;2023-04-28T07:02:42;94860.34;;;10.51;46.38
9774;BME280;4926;42.670;23.316;2023-04-28T07:05:09;94857.41;;;10.81;45.98
9774;BME280;4926;42.670;23.316;2023-04-28T07:07:37;94854.66;;;10.91;45.27
9774;BME280;4926;42.670;23.316;2023-04-28T07:10:04;94860.09;;;11.04;45.72
9774;BME280;4926;42.670;23.316;2023-04-28T07:12:31;94857.53;;;11.23;45.46
9774;BME280;4926;42.670;23.316;2023-04-28T07:14:58;94846.41;;;11.40;45.06
9774;BME280;4926;42.670;23.316;2023-04-28T07:17:25;94845.06;;;11.66;44.86
9774;BME280;4926;42.670;23.316;2023-04-28T07:19:52;94845.72;;;11.76;44.67
9774;BME280;4926;42.670;23.316;2023-04-28T07:22:18;94839.41;;;12.09;43.65
9774;BME280;4926;42.670;23.316;2023-04-28T07:24:47;94837.72;;;12.32;43.22
9774;BME280;4926;42.670;23.316;2023-04-28T07:27:13;94828.19;;;12.45;43.01
9774;BME280;4926;42.670;23.316;2023-04-28T07:29:40;94825.63;;;12.72;42.48
9774;BME280;4926;42.670;23.316;2023-04-28T07:32:08;94816.44;;;12.91;42.22
9774;BME280;4926;42.670;23.316;2023-04-28T07:34:35;94820.00;;;13.19;42.58
9774;BME280;4926;42.670;23.316;2023-04-28T07:37:03;94818.19;;;13.14;41.80
9774;BME280;4926;42.670;23.316;2023-04-28T07:39:32;94821.34;;;13.30;41.60
9774;BME280;4926;42.670;23.316;2023-04-28T07:42:01;94815.44;;;13.33;41.53
9774;BME280;4926;42.670;23.316;2023-04-28T07:44:28;94808.09;;;13.52;41.17
9774;BME280;4926;42.670;23.316;2023-04-28T07:46:55;94804.34;;;13.39;41.62
9774;BME280;4926;42.670;23.316;2023-04-28T07:49:22;94816.78;;;13.58;41.33
9774;BME280;4926;42.670;23.316;2023-04-28T07:51:49;94808.94;;;13.88;40.39
9774;BME280;4926;42.670;23.316;2023-04-28T07:54:18;94801.63;;;13.80;40.47
9774;BME280;4926;42.670;23.316;2023-04-28T07:56:44;94804.00;;;13.82;41.07
9774;BME280;4926;42.670;23.316;2023-04-28T07:59:13;94793.25;;;13.32;40.69
9774;BME280;4926;42.670;23.316;2023-04-28T08:01:41;94793.06;;;13.29;41.06
9774;BME280;4926;42.670;23.316;2023-04-28T08:04:08;94805.59;;;14.05;40.18
9774;BME280;4926;42.670;23.316;2023-04-28T08:06:35;94787.97;;;14.62;39.28
9774;BME280;4926;42.670;23.316;2023-04-28T08:09:02;94783.75;;;15.00;37.85
9774;BME280;4926;42.670;23.316;2023-04-28T08:11:30;94777.56;;;14.91;37.96
9774;BME280;4926;42.670;23.316;2023-04-28T08:13:57;94773.91;;;15.17;37.07
9774;BME280;4926;42.670;23.316;2023-04-28T08:16:31;94779.28;;;14.87;38.38
9774;BME280;4926;42.670;23.316;2023-04-28T08:18:58;94771.16;;;15.39;37.03
9774;BME280;4926;42.670;23.316;2023-04-28T08:21:27;94768.56;;;15.65;36.87
9774;BME280;4926;42.670;23.316;2023-04-28T08:23:54;94770.34;;;15.87;35.83
9774;BME280;4926;42.670;23.316;2023-04-28T08:26:21;94754.53;;;16.45;35.60
9774;BME280;4926;42.670;23.316;2023-04-28T08:28:49;94750.91;;;16.66;34.86
9774;BME280;4926;42.670;23.316;2023-04-28T08:31:16;94746.47;;;16.70;34.50
9774;BME280;4926;42.670;23.316;2023-04-28T08:33:44;94728.75;;;16.69;34.60
9774;BME280;4926;42.670;23.316;2023-04-28T08:36:14;94732.38;;;16.73;34.60
9774;BME280;4926;42.670;23.316;2023-04-28T08:38:43;94735.25;;;16.68;34.87
9774;BME280;4926;42.670;23.316;2023-04-28T08:41:16;94734.19;;;16.01;35.60
9774;BME280;4926;42.670;23.316;2023-04-28T08:43:44;94736.72;;;16.23;35.21
9774;BME280;4926;42.670;23.316;2023-04-28T08:46:13;94729.69;;;16.73;35.13
9774;BME280;4926;42.670;23.316;2023-04-28T08:48:44;94730.59;;;16.95;35.03
9774;BME280;4926;42.670;23.316;2023-04-28T08:51:14;94726.28;;;16.94;35.16
9774;BME280;4926;42.670;23.316;2023-04-28T08:53:46;94714.44;;;17.32;33.92
9774;BME280;4926;42.670;23.316;2023-04-28T08:56:16;94715.94;;;17.13;34.28
9774;BME280;4926;42.670;23.316;2023-04-28T08:58:44;94717.44;;;17.68;33.62
9774;BME280;4926;42.670;23.316;2023-04-28T09:01:11;94695.22;;;18.13;32.97
9774;BME280;4926;42.670;23.316;2023-04-28T09:03:37;94702.19;;;17.06;33.99
9774;BME280;4926;42.670;23.316;2023-04-28T09:06:05;94701.03;;;17.24;33.82
9774;BME280;4926;42.670;23.316;2023-04-28T09:08:32;94704.69;;;16.73;34.60
9774;BME280;4926;42.670;23.316;2023-04-28T09:11:05;94712.16;;;16.67;34.81
9774;BME280;4926;42.670;23.316;2023-04-28T09:13:36;94697.31;;;16.36;35.47
9774;BME280;4926;42.670;23.316;2023-04-28T09:16:05;94696.06;;;16.50;34.64
9774;BME280;4926;42.670;23.316;2023-04-28T09:18:32;94696.00;;;16.85;34.80
9774;BME280;4926;42.670;23.316;2023-04-28T09:21:02;94696.88;;;16.97;34.01
9774;BME280;4926;42.670;23.316;2023-04-28T09:23:33;94683.13;;;17.28;33.71
9774;BME280;4926;42.670;23.316;2023-04-28T09:26:01;94684.06;;;17.81;33.66
9774;BME280;4926;42.670;23.316;2023-04-28T09:28:28;94677.88;;;17.81;33.54
9774;BME280;4926;42.670;23.316;2023-04-28T09:30:55;94669.28;;;17.88;32.49
9774;BME280;4926;42.670;23.316;2023-04-28T09:33:22;94650.31;;;18.17;32.02
9774;BME280;4926;42.670;23.316;2023-04-28T09:35:49;94661.53;;;18.07;33.01
9774;BME280;4926;42.670;23.316;2023-04-28T09:38:18;94654.47;;;17.32;32.60
9774;BME280;4926;42.670;23.316;2023-04-28T09:40:54;94656.28;;;17.40;34.00
9774;BME280;4926;42.670;23.316;2023-04-28T09:43:28;94664.06;;;17.62;33.17
9774;BME280;4926;42.670;23.316;2023-04-28T09:45:59;94640.81;;;17.99;32.50
9774;BME280;4926;42.670;23.316;2023-04-28T09:48:28;94642.75;;;17.57;33.37
9774;BME280;4926;42.670;23.316;2023-04-28T09:50:55;94644.31;;;17.99;32.53
9774;BME280;4926;42.670;23.316;2023-04-28T09:53:24;94636.47;;;18.39;31.97
9774;BME280;4926;42.670;23.316;2023-04-28T09:55:53;94627.09;;;18.12;31.94
9774;BME280;4926;42.670;23.316;2023-04-28T09:58:22;94620.69;;;18.17;32.06
9774;BME280;4926;42.670;23.316;2023-04-28T10:00:51;94637.41;;;17.69;33.05
9774;BME280;4926;42.670;23.316;2023-04-28T10:03:23;94634.25;;;17.67;33.13
9774;BME280;4926;42.670;23.316;2023-04-28T10:05:51;94615.34;;;17.96;32.21
9774;BME280;4926;42.670;23.316;2023-04-28T10:08:19;94604.50;;;18.61;31.57
9774;BME280;4926;42.670;23.316;2023-04-28T10:10:47;94604.72;;;18.44;31.48
9774;BME280;4926;42.670;23.316;2023-04-28T10:13:16;94595.31;;;18.62;31.10
9774;BME280;4926;42.670;23.316;2023-04-28T10:15:44;94588.03;;;18.87;31.32
9774;BME280;4926;42.670;23.316;2023-04-28T10:18:14;94598.22;;;19.18;31.06
9774;BME280;4926;42.670;23.316;2023-04-28T10:20:43;94598.47;;;19.13;30.97
9774;BME280;4926;42.670;23.316;2023-04-28T10:23:43;94590.34;;;19.49;31.04
9774;BME280;4926;42.670;23.316;2023-04-28T10:26:16;94581.22;;;19.53;29.96
9774;BME280;4926;42.670;23.316;2023-04-28T10:28:46;94586.81;;;19.60;29.99
9774;BME280;4926;42.670;23.316;2023-04-28T10:31:14;94578.22;;;19.31;29.84
9774;BME280;4926;42.670;23.316;2023-04-28T10:33:45;94572.28;;;19.13;30.34
9774;BME280;4926;42.670;23.316;2023-04-28T10:36:46;94572.50;;;18.72;30.94
9774;BME280;4926;42.670;23.316;2023-04-28T10:39:14;94569.94;;;18.87;30.95
9774;BME280;4926;42.670;23.316;2023-04-28T10:41:41;94568.13;;;18.55;30.68
9774;BME280;4926;42.670;23.316;2023-04-28T10:44:43;94572.09;;;18.25;31.11
9774;BME280;4926;42.670;23.316;2023-04-28T10:47:10;94567.56;;;18.62;30.98
9774;BME280;4926;42.670;23.316;2023-04-28T10:50:10;94555.25;;;19.37;29.74
9774;BME280;4926;42.670;23.316;2023-04-28T10:52:49;94534.28;;;19.85;29.16
9774;BME280;4926;42.670;23.316;2023-04-28T10:55:32;94537.69;;;19.98;29.00
9774;BME280;4926;42.670;23.316;2023-04-28T10:58:31;94528.84;;;20.13;28.32
9774;BME280;4926;42.670;23.316;2023-04-28T11:01:25;94524.44;;;19.93;28.45
9774;BME280;4926;42.670;23.316;2023-04-28T11:03:56;94520.81;;;20.01;29.45
9774;BME280;4926;42.670;23.316;2023-04-28T11:06:29;94521.94;;;20.43;29.06
9774;BME280;4926;42.670;23.316;2023-04-28T11:08:57;94515.09;;;20.18;29.50
9774;BME280;4926;42.670;23.316;2023-04-28T11:11:25;94518.78;;;19.98;28.87
9774;BME280;4926;42.670;23.316;2023-04-28T11:13:54;94515.50;;;19.77;29.77
9774;BME280;4926;42.670;23.316;2023-04-28T11:16:23;94522.16;;;20.23;28.90
9774;BME280;4926;42.670;23.316;2023-04-28T11:18:53;94506.91;;;20.30;28.71
9774;BME280;4926;42.670;23.316;2023-04-28T11:21:21;94500.69;;;20.76;28.13
9774;BME280;4926;42.670;23.316;2023-04-28T11:23:49;94483.34;;;20.96;26.85
9774;BME280;4926;42.670;23.316;2023-04-28T11:26:17;94482.09;;;20.75;27.05
9774;BME280;4926;42.670;23.316;2023-04-28T11:28:49;94479.09;;;20.95;26.26
9774;BME280;4926;42.670;23.316;2023-04-28T11:31:16;94473.56;;;20.42;26.32
9774;BME280;4926;42.670;23.316;2023-04-28T11:33:59;94476.91;;;20.35;27.15
9774;BME280;4926;42.670;23.316;2023-04-28T11:36:31;94473.00;;;20.83;27.17
9774;BME280;4926;42.670;23.316;2023-04-28T11:39:00;94476.81;;;20.47;27.57
9774;BME280;4926;42.670;23.316;2023-04-28T11:41:29;94469.81;;;20.62;26.37
9774;BME280;4926;42.670;23.316;2023-04-28T11:43:56;94461.50;;;20.70;26.35
9774;BME280;4926;42.670;23.316;2023-04-28T11:46:24;94455.44;;;21.46;25.98
9774;BME280;4926;42.670;23.316;2023-04-28T11:49:02;94443.09;;;22.32;26.16
9774;BME280;4926;42.670;23.316;2023-04-28T11:51:34;94450.19;;;22.63;25.79
9774;BME280;4926;42.670;23.316;2023-04-28T11:54:03;94446.44;;;22.97;25.85
9774;BME280;4926;42.670;23.316;2023-04-28T11:56:36;94443.03;;;22.77;24.68
9774;BME280;4926;42.670;23.316;2023-04-28T11:59:05;94439.09;;;21.81;25.59
9774;BME280;4926;42.670;23.316;2023-04-28T12:01:34;94446.44;;;22.03;26.03
9774;BME280;4926;42.670;23.316;2023-04-28T12:04:05;94443.34;;;21.82;26.34
9774;BME280;4926;42.670;23.316;2023-04-28T12:06:33;94446.22;;;21.32;26.63
9774;BME280;4926;42.670;23.316;2023-04-28T12:09:00;94463.03;;;20.37;27.51
9774;BME280;4926;42.670;23.316;2023-04-28T12:11:30;94469.50;;;20.32;27.86
9774;BME280;4926;42.670;23.316;2023-04-28T12:14:06;94455.06;;;20.59;27.23
9774;BME280;4926;42.670;23.316;2023-04-28T12:16:37;94447.22;;;20.54;27.79
9774;BME280;4926;42.670;23.316;2023-04-28T12:19:10;94443.47;;;20.93;27.91
9774;BME280;4926;42.670;23.316;2023-04-28T12:21:37;94442.31;;;21.48;27.52
9774;BME280;4926;42.670;23.316;2023-04-28T12:24:18;94433.59;;;21.58;27.10
9774;BME280;4926;42.670;23.316;2023-04-28T12:26:46;94434.72;;;21.95;27.13
9774;BME280;4926;42.670;23.316;2023-04-28T12:29:35;94429.88;;;21.85;26.97
9774;BME280;4926;42.670;23.316;2023-04-28T12:32:08;94426.47;;;22.11;26.56
9774;BME280;4926;42.670;23.316;2023-04-28T12:34:40;94417.84;;;21.64;27.15
9774;BME280;4926;42.670;23.316;2023-04-28T12:37:07;94421.59;;;22.46;26.61
9774;BME280;4926;42.670;23.316;2023-04-28T12:39:35;94412.34;;;23.03;26.28
9774;BME280;4926;42.670;23.316;2023-04-28T12:42:03;94401.38;;;23.55;26.10
9774;BME280;4926;42.670;23.316;2023-04-28T12:44:34;94402.69;;;24.05;25.82
9774;BME280;4926;42.670;23.316;2023-04-28T12:47:08;94399.69;;;24.17;24.96
9774;BME280;4926;42.670;23.316;2023-04-28T12:49:37;94398.63;;;23.92;25.21
9774;BME280;4926;42.670;23.316;2023-04-28T12:52:04;94392.47;;;24.35;24.92
9774;BME280;4926;42.670;23.316;2023-04-28T12:54:31;94390.97;;;24.48;24.81
9774;BME280;4926;42.670;23.316;2023-04-28T12:56:57;94381.31;;;23.67;24.97
9774;BME280;4926;42.670;23.316;2023-04-28T12:59:24;94373.78;;;22.90;25.50
9774;BME280;4926;42.670;23.316;2023-04-28T13:01:51;94379.22;;;22.12;26.30
9774;BME280;4926;42.670;23.316;2023-04-28T13:04:18;94379.09;;;22.05;26.25
9774;BME280;4926;42.670;23.316;2023-04-28T13:06:47;94387.66;;;22.07;26.61
9774;BME280;4926;42.670;23.316;2023-04-28T13:09:14;94381.59;;;22.17;26.41
9774;BME280;4926;42.670;23.316;2023-04-28T13:11:41;94375.06;;;22.44;26.29
9774;BME280;4926;42.670;23.316;2023-04-28T13:14:08;94383.06;;;22.11;26.68
9774;BME280;4926;42.670;23.316;2023-04-28T13:16:34;94368.75;;;22.37;26.36
9774;BME280;4926;42.670;23.316;2023-04-28T13:19:02;94383.41;;;22.32;26.48
9774;BME280;4926;42.670;23.316;2023-04-28T13:21:33;94377.16;;;22.28;26.58
9774;BME280;4926;42.670;23.316;2023-04-28T13:24:05;94385.31;;;22.54;26.69
9774;BME280;4926;42.670;23.316;2023-04-28T13:26:34;94372.91;;;23.12;25.96